createdAt,value
2022-11-28T00:01:31.596Z,10.87
2022-11-28T00:04:00.427Z,10.88
2022-11-28T00:06:28.446Z,10.82
2022-11-28T00:08:58.525Z,10.81
2022-11-28T00:11:25.574Z,10.72
2022-11-28T00:13:52.686Z,10.70
2022-11-28T00:16:23.082Z,10.58
2022-11-28T00:18:51.889Z,10.54
2022-11-28T00:21:20.588Z,10.51
2022-11-28T00:23:48.799Z,10.43
2022-11-28T00:26:19.544Z,10.45
2022-11-28T00:28:46.962Z,10.35
2022-11-28T00:31:15.876Z,10.44
2022-11-28T00:33:43.765Z,10.49
2022-11-28T00:36:12.112Z,10.50
2022-11-28T00:38:40.535Z,10.52
2022-11-28T00:41:10.202Z,10.60
2022-11-28T00:43:37.943Z,10.58
2022-11-28T00:46:05.452Z,10.62
2022-11-28T00:48:33.611Z,10.55
2022-11-28T00:51:07.144Z,10.56
2022-11-28T00:53:34.187Z,10.60
2022-11-28T00:56:05.055Z,10.54
2022-11-28T00:58:32.658Z,10.47
2022-11-28T01:00:59.813Z,10.32
2022-11-28T01:03:27.208Z,10.32
2022-11-28T01:05:54.160Z,10.33
2022-11-28T01:08:21.114Z,10.36
2022-11-28T01:10:48.032Z,10.37
2022-11-28T01:13:16.293Z,10.42
2022-11-28T01:15:43.345Z,10.50
2022-11-28T01:18:10.497Z,10.59
2022-11-28T01:20:37.468Z,10.65
2022-11-28T01:23:04.798Z,10.73
2022-11-28T01:25:32.102Z,10.79
2022-11-28T01:27:59.166Z,10.77
2022-11-28T01:30:28.016Z,10.66
2022-11-28T01:32:55.102Z,10.70
2022-11-28T01:35:22.395Z,10.67
2022-11-28T01:37:49.388Z,10.64
2022-11-28T01:40:16.824Z,10.65
2022-11-28T01:42:43.764Z,10.58
2022-11-28T01:45:19.802Z,10.65
2022-11-28T01:47:50.906Z,10.70
2022-11-28T01:50:20.543Z,10.78
2022-11-28T01:52:53.309Z,10.82
2022-11-28T01:55:26.443Z,10.86
2022-11-28T01:57:55.873Z,10.85
2022-11-28T02:00:23.943Z,10.81
2022-11-28T02:03:00.513Z,10.83
2022-11-28T02:05:27.493Z,10.87
2022-11-28T02:07:54.809Z,10.79
2022-11-28T02:10:27.257Z,10.87
2022-11-28T02:13:21.139Z,10.93
2022-11-28T02:16:17.284Z,10.85
2022-11-28T02:19:00.564Z,10.89
2022-11-28T02:21:50.682Z,10.83
2022-11-28T02:24:54.827Z,10.94
2022-11-28T02:27:40.817Z,10.93
2022-11-28T02:30:21.175Z,10.94
2022-11-28T02:33:05.850Z,10.98
2022-11-28T02:35:41.864Z,11.11
2022-11-28T02:38:20.251Z,11.06
2022-11-28T02:41:04.362Z,11.15
2022-11-28T02:43:43.253Z,11.22
2022-11-28T02:46:16.655Z,11.13
2022-11-28T02:48:53.500Z,11.16
2022-11-28T02:51:31.352Z,11.17
2022-11-28T02:54:01.896Z,11.17
2022-11-28T02:56:29.247Z,11.15
2022-11-28T02:58:56.284Z,11.22
2022-11-28T03:01:29.511Z,11.20
2022-11-28T03:04:13.193Z,11.16
2022-11-28T03:06:52.562Z,11.17
2022-11-28T03:10:07.724Z,11.18
2022-11-28T03:12:51.743Z,11.14
2022-11-28T03:15:27.231Z,11.21
2022-11-28T03:18:07.804Z,11.20
2022-11-28T03:20:47.510Z,11.22
2022-11-28T03:23:19.587Z,11.27
2022-11-28T03:25:58.583Z,11.24
2022-11-28T03:28:32.526Z,11.24
2022-11-28T03:31:04.713Z,11.22
2022-11-28T03:33:40.650Z,11.10
2022-11-28T03:36:16.615Z,11.12
2022-11-28T03:38:49.641Z,11.01
2022-11-28T03:41:22.217Z,11.05
2022-11-28T03:43:57.683Z,11.16
2022-11-28T03:46:35.056Z,11.17
2022-11-28T03:49:07.013Z,11.24
2022-11-28T03:51:42.909Z,11.30
2022-11-28T03:54:15.357Z,11.41
2022-11-28T03:56:54.633Z,11.39
2022-11-28T03:59:28.670Z,11.43
2022-11-28T04:02:09.157Z,11.41
2022-11-28T04:04:48.401Z,11.29
2022-11-28T04:07:28.819Z,11.24
2022-11-28T04:10:06.558Z,11.30
2022-11-28T04:12:50.546Z,11.33
2022-11-28T04:15:29.430Z,11.35
2022-11-28T04:18:02.241Z,11.41
2022-11-28T04:20:39.951Z,11.45
2022-11-28T04:23:14.811Z,11.44
2022-11-28T04:25:50.862Z,11.37
2022-11-28T04:28:25.560Z,11.35
2022-11-28T04:30:56.410Z,11.38
2022-11-28T04:33:29.234Z,11.36
2022-11-28T04:35:58.651Z,11.45
2022-11-28T04:38:30.131Z,11.42
2022-11-28T04:41:06.560Z,11.35
2022-11-28T04:43:39.286Z,11.35
2022-11-28T04:46:14.802Z,11.34
2022-11-28T04:48:42.595Z,11.37
2022-11-28T04:51:20.747Z,11.36
2022-11-28T04:54:00.881Z,11.32
2022-11-28T04:56:36.966Z,11.33
2022-11-28T04:59:07.400Z,11.30
2022-11-28T05:01:36.900Z,11.32
2022-11-28T05:04:04.227Z,11.26
2022-11-28T05:06:34.064Z,11.24
2022-11-28T05:09:04.024Z,11.27
2022-11-28T05:11:32.256Z,11.21
2022-11-28T05:13:59.254Z,11.17
2022-11-28T05:16:26.556Z,11.16
2022-11-28T05:18:53.739Z,11.20
2022-11-28T05:21:21.057Z,11.21
2022-11-28T05:23:48.803Z,11.24
2022-11-28T05:26:19.895Z,11.21
2022-11-28T05:28:50.739Z,11.20
2022-11-28T05:31:19.772Z,11.10
2022-11-28T05:33:47.540Z,11.10
2022-11-28T05:36:16.413Z,11.05
2022-11-28T05:38:44.570Z,10.99
2022-11-28T05:41:20.468Z,10.93
2022-11-28T05:43:47.834Z,10.98
2022-11-28T05:46:15.265Z,11.01
2022-11-28T05:48:42.413Z,10.96
2022-11-28T05:51:09.482Z,10.97
2022-11-28T05:53:36.529Z,10.92
2022-11-28T05:56:07.538Z,10.89
2022-11-28T05:58:36.482Z,10.91
2022-11-28T06:01:11.528Z,10.83
2022-11-28T06:03:38.553Z,10.83
2022-11-28T06:06:11.446Z,10.81
2022-11-28T06:08:38.369Z,10.76
2022-11-28T06:11:05.983Z,10.75
2022-11-28T06:13:33.078Z,10.72
2022-11-28T06:16:01.631Z,10.76
2022-11-28T06:18:28.803Z,10.67
2022-11-28T06:20:55.844Z,10.63
2022-11-28T06:23:23.009Z,10.61
2022-11-28T06:25:50.018Z,10.59
2022-11-28T06:28:16.988Z,10.55
2022-11-28T06:30:44.530Z,10.53
2022-11-28T06:33:13.166Z,10.58
2022-11-28T06:35:40.578Z,10.58
2022-11-28T06:38:11.500Z,10.51
2022-11-28T06:40:41.515Z,10.50
2022-11-28T06:43:08.495Z,10.53
2022-11-28T06:45:35.935Z,10.54
2022-11-28T06:48:03.147Z,10.55
2022-11-28T06:50:33.782Z,10.57
2022-11-28T06:53:00.773Z,10.61
2022-11-28T06:55:29.885Z,10.59
2022-11-28T06:57:56.867Z,10.57
2022-11-28T07:00:24.304Z,10.61
2022-11-28T07:02:51.707Z,10.62
2022-11-28T07:05:19.337Z,10.52
2022-11-28T07:07:54.317Z,10.56
2022-11-28T07:10:22.547Z,10.52
2022-11-28T07:12:54.520Z,10.51
2022-11-28T07:15:21.876Z,10.49
2022-11-28T07:17:49.239Z,10.49
2022-11-28T07:20:16.873Z,10.49
2022-11-28T07:22:44.391Z,10.51
2022-11-28T07:25:14.710Z,10.52
2022-11-28T07:27:42.035Z,10.50
2022-11-28T07:30:10.369Z,10.55
2022-11-28T07:32:40.271Z,10.58
2022-11-28T07:35:08.895Z,10.58
2022-11-28T07:37:36.576Z,10.65
2022-11-28T07:40:05.730Z,10.57
2022-11-28T07:42:34.058Z,10.54
2022-11-28T07:45:01.060Z,10.48
2022-11-28T07:47:28.106Z,10.43
2022-11-28T07:49:55.519Z,10.44
2022-11-28T07:52:22.607Z,10.45
2022-11-28T07:54:50.297Z,10.50
2022-11-28T07:57:17.566Z,10.47
2022-11-28T07:59:45.989Z,10.37
2022-11-28T08:02:13.538Z,10.30
2022-11-28T08:07:27.495Z,10.29
2022-11-28T08:09:54.496Z,10.34
2022-11-28T08:12:21.446Z,10.32
2022-11-28T08:14:49.880Z,10.37
2022-11-28T08:17:16.818Z,10.42
2022-11-28T08:19:43.772Z,10.43
2022-11-28T08:22:10.738Z,10.48
2022-11-28T08:24:37.859Z,10.40
2022-11-28T08:27:04.844Z,10.40
2022-11-28T08:29:31.861Z,10.39
2022-11-28T08:32:00.376Z,10.31
2022-11-28T08:34:27.346Z,10.28
2022-11-28T08:36:54.296Z,10.34
2022-11-28T08:39:25.326Z,10.34
2022-11-28T08:41:52.827Z,10.40
2022-11-28T08:44:19.874Z,10.32
2022-11-28T08:46:46.930Z,10.27
2022-11-28T08:49:15.955Z,10.23
2022-11-28T08:51:42.939Z,10.26
2022-11-28T08:54:10.124Z,10.28
2022-11-28T08:56:37.069Z,10.32
2022-11-28T08:59:04.436Z,10.34
2022-11-28T09:01:31.997Z,10.37
2022-11-28T09:03:59.161Z,10.41
2022-11-28T09:06:27.581Z,10.45
2022-11-28T09:08:54.893Z,10.50
2022-11-28T09:11:23.153Z,10.41
2022-11-28T09:13:51.025Z,10.39
2022-11-28T09:16:19.500Z,10.41
2022-11-28T09:18:46.663Z,10.48
2022-11-28T09:21:15.314Z,10.56
2022-11-28T09:23:45.611Z,10.60
2022-11-28T09:26:38.686Z,10.59
2022-11-28T09:29:06.747Z,10.62
2022-11-28T09:31:33.962Z,10.57
2022-11-28T09:34:03.918Z,10.53
2022-11-28T09:36:33.110Z,10.55
2022-11-28T09:39:02.299Z,10.58
2022-11-28T09:41:54.101Z,10.56
2022-11-28T09:44:26.904Z,10.50
2022-11-28T09:47:04.790Z,10.43
2022-11-28T09:49:41.846Z,10.46
2022-11-28T09:52:26.462Z,10.46
2022-11-28T09:55:05.688Z,10.43
2022-11-28T09:57:39.083Z,10.49
2022-11-28T10:00:16.937Z,10.57
2022-11-28T10:02:56.997Z,10.56
2022-11-28T10:05:35.855Z,10.59
2022-11-28T10:08:21.667Z,10.60
2022-11-28T10:11:01.028Z,10.67
2022-11-28T10:14:06.634Z,10.70
2022-11-28T10:16:46.402Z,10.73
2022-11-28T10:19:52.852Z,10.81
2022-11-28T10:22:16.236Z,10.84
2022-11-28T10:24:50.095Z,10.87
2022-11-28T10:27:32.637Z,10.82
2022-11-28T10:30:04.902Z,10.76
2022-11-28T10:32:38.269Z,10.81
2022-11-28T10:35:13.241Z,10.77
2022-11-28T10:37:40.287Z,10.73
2022-11-28T10:40:24.878Z,10.77
2022-11-28T10:43:01.330Z,10.75
2022-11-28T10:45:43.839Z,10.76
2022-11-28T10:48:40.468Z,10.77
2022-11-28T10:51:28.840Z,10.70
2022-11-28T10:54:15.813Z,10.73
2022-11-28T10:56:56.963Z,10.66
2022-11-28T10:59:45.073Z,10.66
2022-11-28T11:02:26.357Z,10.66
2022-11-28T11:04:54.682Z,10.74
2022-11-28T11:07:29.889Z,10.79
2022-11-28T11:10:12.284Z,10.82
2022-11-28T11:12:41.507Z,10.87
2022-11-28T11:15:29.901Z,10.81
2022-11-28T11:17:57.500Z,10.92
2022-11-28T11:20:36.033Z,10.94
2022-11-28T11:23:15.784Z,10.95
2022-11-28T11:25:53.419Z,11.02
2022-11-28T11:28:39.200Z,11.07
2022-11-28T11:31:20.428Z,11.11
2022-11-28T11:33:51.540Z,11.15
2022-11-28T11:36:29.059Z,11.14
2022-11-28T11:39:22.037Z,11.11
2022-11-28T11:41:51.728Z,11.10
2022-11-28T11:44:34.105Z,11.06
2022-11-28T11:47:05.750Z,11.13
2022-11-28T11:49:36.605Z,11.12
2022-11-28T11:52:14.496Z,11.12
2022-11-28T11:54:58.701Z,11.06
2022-11-28T11:57:33.870Z,11.02
2022-11-28T12:00:07.128Z,11.04
2022-11-28T12:02:44.197Z,11.09
2022-11-28T12:05:17.061Z,11.08
2022-11-28T12:07:56.622Z,11.01
2022-11-28T12:10:29.640Z,11.13
2022-11-28T12:12:57.386Z,11.24
2022-11-28T12:15:47.829Z,11.30
2022-11-28T12:18:35.131Z,11.31
2022-11-28T12:21:13.887Z,11.28
2022-11-28T12:24:01.554Z,11.19
2022-11-28T12:26:41.035Z,11.15
2022-11-28T12:29:39.157Z,11.09
2022-11-28T12:32:29.252Z,10.96
2022-11-28T12:35:21.739Z,11.04
2022-11-28T12:38:10.715Z,11.04
2022-11-28T12:40:56.497Z,10.95
2022-11-28T12:43:44.272Z,11.05
2022-11-28T12:46:27.034Z,11.09
2022-11-28T12:49:17.505Z,11.08
2022-11-28T12:52:05.310Z,11.10
2022-11-28T12:55:17.395Z,10.97
2022-11-28T12:57:53.403Z,10.95
2022-11-28T13:00:24.556Z,11.01
2022-11-28T13:03:08.856Z,10.98
2022-11-28T13:05:59.144Z,10.94
2022-11-28T13:08:52.995Z,10.87
2022-11-28T13:11:44.926Z,10.95
2022-11-28T13:14:29.479Z,10.95
2022-11-28T13:17:07.456Z,11.06
2022-11-28T13:19:50.297Z,11.08
2022-11-28T13:22:24.981Z,11.06
2022-11-28T13:25:06.922Z,10.97
2022-11-28T13:27:44.693Z,10.95
2022-11-28T13:30:22.386Z,10.85
2022-11-28T13:33:01.345Z,10.90
2022-11-28T13:35:29.840Z,10.95
2022-11-28T13:41:03.869Z,10.88
2022-11-28T13:43:46.419Z,10.95
2022-11-28T13:46:14.902Z,10.96
2022-11-28T13:49:20.525Z,10.87
2022-11-28T13:51:48.886Z,10.83
2022-11-28T13:54:44.677Z,10.92
2022-11-28T13:57:31.019Z,10.97
2022-11-28T14:00:05.009Z,11.04
2022-11-28T14:02:44.316Z,11.07
2022-11-28T14:05:31.063Z,11.15
2022-11-28T14:07:58.610Z,11.12
2022-11-28T14:10:56.567Z,11.05
2022-11-28T14:13:58.251Z,10.92
2022-11-28T14:16:50.098Z,10.82
2022-11-28T14:19:38.323Z,10.88
2022-11-28T14:22:28.748Z,10.89
2022-11-28T14:25:04.694Z,10.96
2022-11-28T14:27:36.742Z,10.95
2022-11-28T14:30:07.605Z,11.02
2022-11-28T14:32:40.216Z,11.04
2022-11-28T14:35:36.621Z,11.05
2022-11-28T14:38:24.974Z,11.14
2022-11-28T14:41:04.069Z,11.08
2022-11-28T14:43:32.206Z,11.13
2022-11-28T14:46:30.512Z,11.05
2022-11-28T14:49:30.846Z,11.00
2022-11-28T14:52:37.595Z,10.97
2022-11-28T14:55:17.755Z,10.94
2022-11-28T14:57:56.531Z,10.91
2022-11-28T15:00:27.789Z,10.96
2022-11-28T15:03:19.324Z,10.99
2022-11-28T15:05:50.481Z,11.00
2022-11-28T15:08:36.954Z,11.00
2022-11-28T15:11:37.786Z,10.94
2022-11-28T15:14:19.557Z,10.98
2022-11-28T15:16:50.837Z,11.02
2022-11-28T15:19:27.465Z,11.04
2022-11-28T15:21:55.786Z,11.05
2022-11-28T15:24:30.481Z,11.08
2022-11-28T15:27:22.433Z,11.04
2022-11-28T15:29:55.655Z,11.06
2022-11-28T15:32:23.622Z,11.05
2022-11-28T15:35:00.535Z,11.15
2022-11-28T15:37:31.395Z,11.20
2022-11-28T15:40:01.055Z,11.12
2022-11-28T15:42:32.426Z,11.18
2022-11-28T15:45:08.298Z,11.14
2022-11-28T15:47:35.503Z,11.07
2022-11-28T15:50:16.959Z,11.10
2022-11-28T15:52:56.960Z,11.14
2022-11-28T15:55:29.519Z,11.11
2022-11-28T15:58:12.060Z,11.14
2022-11-28T16:00:45.048Z,11.18
2022-11-28T16:03:17.674Z,11.22
2022-11-28T16:05:48.435Z,11.24
2022-11-28T16:08:30.616Z,11.22
2022-11-28T16:10:59.363Z,11.26
2022-11-28T16:13:29.269Z,11.21
2022-11-28T16:15:58.353Z,11.10
2022-11-28T16:18:27.741Z,11.13
2022-11-28T16:21:00.142Z,11.08
2022-11-28T16:23:32.706Z,11.07
2022-11-28T16:26:02.464Z,11.10
2022-11-28T16:28:33.479Z,11.14
2022-11-28T16:31:00.647Z,11.19
2022-11-28T16:33:38.513Z,11.25
2022-11-28T16:36:17.914Z,11.26
2022-11-28T16:38:48.033Z,11.26
2022-11-28T16:41:17.930Z,11.22
2022-11-28T16:43:52.790Z,11.22
2022-11-28T16:46:23.480Z,11.29
2022-11-28T16:48:56.234Z,11.34
2022-11-28T16:51:36.766Z,11.37
2022-11-28T16:54:31.673Z,11.36
2022-11-28T16:57:11.479Z,11.36
2022-11-28T16:59:38.891Z,11.36
2022-11-28T17:02:15.648Z,11.29
2022-11-28T17:04:43.755Z,11.32
2022-11-28T17:07:15.259Z,11.32
2022-11-28T17:09:43.083Z,11.29
2022-11-28T17:12:20.755Z,11.26
2022-11-28T17:14:47.773Z,11.32
2022-11-28T17:17:18.537Z,11.35
2022-11-28T17:19:46.760Z,11.34
2022-11-28T17:22:19.796Z,11.36
2022-11-28T17:24:48.610Z,11.34
2022-11-28T17:27:16.421Z,11.29
2022-11-28T17:29:44.004Z,11.32
2022-11-28T17:32:13.314Z,11.28
2022-11-28T17:34:42.723Z,11.24
2022-11-28T17:37:10.648Z,11.29
2022-11-28T17:39:39.072Z,11.30
2022-11-28T17:42:06.527Z,11.34
2022-11-28T17:44:37.451Z,11.37
2022-11-28T17:47:05.893Z,11.39
2022-11-28T17:49:33.134Z,11.36
2022-11-28T17:52:00.125Z,11.36
2022-11-28T17:54:28.291Z,11.35
2022-11-28T17:56:57.706Z,11.36
2022-11-28T17:59:26.874Z,11.37
2022-11-28T18:01:54.482Z,11.41
2022-11-28T18:04:21.778Z,11.38
2022-11-28T18:06:48.843Z,11.36
2022-11-28T18:09:16.131Z,11.36
2022-11-28T18:11:44.841Z,11.34
2022-11-28T18:14:13.898Z,11.34
2022-11-28T18:16:43.596Z,11.36
2022-11-28T18:19:11.779Z,11.36
2022-11-28T18:21:39.069Z,11.38
2022-11-28T18:24:07.188Z,11.36
2022-11-28T18:26:35.862Z,11.37
2022-11-28T18:29:03.331Z,11.38
2022-11-28T18:31:31.666Z,11.39
2022-11-28T18:34:02.502Z,11.42
2022-11-28T18:36:32.453Z,11.44
2022-11-28T18:39:03.204Z,11.48
2022-11-28T18:41:30.745Z,11.48
2022-11-28T18:43:59.576Z,11.43
2022-11-28T18:46:28.229Z,11.39
2022-11-28T18:49:00.671Z,11.34
2022-11-28T18:51:30.881Z,11.30
2022-11-28T18:54:02.558Z,11.28
2022-11-28T18:56:31.229Z,11.27
2022-11-28T18:58:58.773Z,11.22
2022-11-28T19:01:30.265Z,11.21
2022-11-28T19:04:01.467Z,11.24
2022-11-28T19:06:29.951Z,11.33
2022-11-28T19:09:00.174Z,11.37
2022-11-28T19:11:31.046Z,11.51
2022-11-28T19:13:59.567Z,11.42
2022-11-28T19:16:30.642Z,11.42
2022-11-28T19:19:01.145Z,11.42
2022-11-28T19:21:32.702Z,11.37
2022-11-28T19:24:01.184Z,11.34
2022-11-28T19:26:31.142Z,11.30
2022-11-28T19:28:59.681Z,11.23
2022-11-28T19:31:29.735Z,11.23
2022-11-28T19:34:02.099Z,11.23
2022-11-28T19:36:31.054Z,11.24
2022-11-28T19:38:58.307Z,11.23
2022-11-28T19:41:25.839Z,11.26
2022-11-28T19:43:52.834Z,11.25
2022-11-28T19:46:20.174Z,11.25
2022-11-28T19:48:47.647Z,11.28
2022-11-28T19:51:15.978Z,11.30
2022-11-28T19:53:47.977Z,11.30
2022-11-28T19:56:18.009Z,11.31
2022-11-28T19:58:48.526Z,11.77
2022-11-28T20:01:18.454Z,11.51
2022-11-28T20:03:47.981Z,11.48
2022-11-28T20:06:19.232Z,11.48
2022-11-28T20:08:47.880Z,11.45
2022-11-28T20:11:18.218Z,11.44
2022-11-28T20:13:46.109Z,11.38
2022-11-28T20:16:17.136Z,11.38
2022-11-28T20:18:45.467Z,11.35
2022-11-28T20:21:17.221Z,11.37
2022-11-28T20:23:47.010Z,11.36
2022-11-28T20:26:16.590Z,11.37
2022-11-28T20:28:45.500Z,11.39
2022-11-28T20:31:20.228Z,11.39
2022-11-28T20:33:48.261Z,11.38
2022-11-28T20:36:19.915Z,11.39
2022-11-28T20:38:48.121Z,11.36
2022-11-28T20:41:18.585Z,11.36
2022-11-28T20:43:46.490Z,11.36
2022-11-28T20:46:16.598Z,11.41
2022-11-28T20:48:44.508Z,11.36
2022-11-28T20:51:14.358Z,11.35
2022-11-28T20:53:42.888Z,11.30
2022-11-28T20:56:14.341Z,11.30
2022-11-28T20:58:42.287Z,11.30
2022-11-28T21:01:14.712Z,11.32
2022-11-28T21:03:41.840Z,11.29
2022-11-28T21:06:09.288Z,11.28
2022-11-28T21:08:36.643Z,11.24
2022-11-28T21:11:07.320Z,11.23
2022-11-28T21:13:35.001Z,11.25
2022-11-28T21:16:07.163Z,11.23
2022-11-28T21:18:35.788Z,11.24
2022-11-28T21:21:09.225Z,11.25
2022-11-28T21:23:36.926Z,11.21
2022-11-28T21:26:07.699Z,11.14
2022-11-28T21:28:36.445Z,11.18
2022-11-28T21:31:06.631Z,11.16
2022-11-28T21:33:33.623Z,11.18
2022-11-28T21:36:01.499Z,11.16
2022-11-28T21:38:28.558Z,11.09
2022-11-28T21:40:55.509Z,11.10
2022-11-28T21:43:23.941Z,11.12
2022-11-28T21:45:51.377Z,11.13
2022-11-28T21:48:18.392Z,11.15
2022-11-28T21:50:46.464Z,11.14
2022-11-28T21:53:16.196Z,11.14
2022-11-28T21:55:44.263Z,11.11
2022-11-28T21:58:11.583Z,11.04
2022-11-28T22:00:53.308Z,10.97
2022-11-28T22:03:22.150Z,10.92
2022-11-28T22:05:49.143Z,10.96
2022-11-28T22:08:16.091Z,10.97
2022-11-28T22:10:43.038Z,11.01
2022-11-28T22:13:09.990Z,11.02
2022-11-28T22:15:42.742Z,11.03
2022-11-28T22:18:10.125Z,11.06
2022-11-28T22:20:43.145Z,11.07
2022-11-28T22:23:11.345Z,11.13
2022-11-28T22:25:38.458Z,11.18
2022-11-28T22:28:05.411Z,11.18
2022-11-28T22:30:32.498Z,11.07
2022-11-28T22:33:00.778Z,11.02
2022-11-28T22:35:27.750Z,11.03
2022-11-28T22:37:55.078Z,11.08
2022-11-28T22:40:22.071Z,11.13
2022-11-28T22:42:54.152Z,11.16
2022-11-28T22:45:21.201Z,11.20
2022-11-28T22:47:48.164Z,11.18
2022-11-28T22:50:16.812Z,11.20
2022-11-28T22:52:44.118Z,11.18
2022-11-28T22:55:11.111Z,11.17
2022-11-28T22:57:38.151Z,11.17
2022-11-28T23:00:08.799Z,11.17
2022-11-28T23:02:36.336Z,11.19
2022-11-28T23:05:04.497Z,11.20
2022-11-28T23:07:32.951Z,11.21
2022-11-28T23:09:59.989Z,11.26
2022-11-28T23:12:26.922Z,11.29
2022-11-28T23:14:53.839Z,11.31
2022-11-28T23:17:20.879Z,11.32
2022-11-28T23:19:47.865Z,11.34
2022-11-28T23:22:14.819Z,11.35
2022-11-28T23:24:43.475Z,11.37
2022-11-28T23:27:10.715Z,11.41
2022-11-28T23:29:37.722Z,11.43
2022-11-28T23:32:05.196Z,11.47
2022-11-28T23:34:32.157Z,11.46
2022-11-28T23:36:59.106Z,11.47
2022-11-28T23:39:26.154Z,11.47
2022-11-28T23:41:55.393Z,11.46
2022-11-28T23:44:22.340Z,11.43
2022-11-28T23:46:49.376Z,11.44
2022-11-28T23:49:17.186Z,11.48
2022-11-28T23:51:44.224Z,11.50
2022-11-28T23:54:11.850Z,11.54
2022-11-28T23:56:41.228Z,11.56
2022-11-28T23:59:11.867Z,11.59
